Station: Christmas Creek  

  Atmospheric Gas Attenuation - ITU Rec 676-11   ----------------- dB/100km -----------------
Date Time Temp RH % AH g/m3 Dew Point Wind Direction Speed kph Gust kph Barometer mB Rainfall Since 9am 24GHz 47GHz 76GHz 122GHz 134GHz 241GHz
08/05 09:20 19.5 32 5.37 2.7 24 33 1024 0 12.5 20.1 26.2 67.9 54.8 186.2
08/05 09:10 19.1 33 5.41 2.7 24 32 1024.1 0 12.6 20.2 26.4 68.6 55.6 188.7
08/05 09:00 18.7 35 5.6 2.9 24 32 1023.5 0 13.0 20.5 27.2 70.6 57.9 196.9
08/05 08:50 18.5 35 5.54 2.9 22 24 1024.2 0 12.9 20.5 27.0 70.3 57.4 195.2
08/05 08:40 18.3 36 5.63 2.9 22 26 1024.3 0 13.1 20.7 27.4 71.3 58.6 199.2
08/05 08:30 18 37 5.68 3.1 20 32 1023.4 0 13.2 20.8 27.7 71.9 59.3 201.7
08/05 08:20 17.5 37 5.52 2.9 19 22 1024.4 0 12.9 20.7 27.3 71.0 57.9 196.8
08/05 08:10 17.4 38 5.63 2.9 24 26 1024.4 0 13.2 20.9 27.7 72.1 59.2 201.4
08/05 08:00 17.4 38 5.63 3 22 30 1023.4 0 13.2 20.9 27.7 72.0 59.2 201.2
08/05 07:50 17 38 5.5 2.7 20 24 1024.3 0 12.9 20.8 27.4 71.2 58.0 197.2
08/05 07:40 16.1 38 5.21 1.9 19 22 1024.3 0 12.3 20.6 26.7 69.3 55.4 187.7
08/05 07:30 15.5 38 5.02 1.3 11 17 1023.1 0 11.9 20.4 26.2 68.0 53.6 181.3
08/05 07:20 15.2 38 4.93 0.9 9 11 1024.3 0 11.8 20.4 26.0 67.5 52.8 178.6
08/05 07:10 14.7 38 4.78 0.6 9 13 1024.3 0 11.5 20.3 25.7 66.6 51.4 173.7
08/05 07:00 14.2 39 4.76 0.5 7 11 1022.8 0 11.4 20.3 25.7 66.7 51.5 173.7
08/05 06:50 13.9 39 4.68 0.1 7 7 1024.3 0 11.3 20.4 25.6 66.3 50.8 171.4
08/05 06:40 13.7 38 4.5 -0.1 7 9 1024.2 0 10.9 20.1 25.0 64.8 48.9 164.6
08/05 06:30 14.1 38 4.61 0 9 13 1022.6 0 11.1 20.2 25.2 65.4 49.8 167.9
08/05 06:20 14.3 37 4.55 -0.1 9 13 1023.9 0 11.0 20.1 25.0 64.7 49.1 165.3
08/05 06:10 14.4 36 4.45 -0.2 9 11 1023.9 0 10.8 19.9 24.6 63.8 47.9 161.2
08/05 06:00 14.5 36 4.48 -0.4 9 15 1022.4 0 10.8 19.9 24.7 63.8 48.1 161.9
08/05 05:50 14.6 35 4.38 -0.4 11 13 1023.8 0 10.6 19.8 24.3 63.0 47.0 158.0
08/05 05:40 14.7 35 4.41 -0.5 11 11 1023.6 0 10.7 19.8 24.4 63.1 47.3 159.0
08/05 05:30 14.9 35 4.46 -0.4 11 15 1022.1 0 10.8 19.8 24.5 63.3 47.6 160.3
08/05 05:20 15.1 34 4.39 -0.6 11 11 1023.5 0 10.6 19.7 24.2 62.7 46.8 157.4
08/05 05:10 15.2 34 4.41 -0.6 11 13 1023.2 0 10.7 19.7 24.2 62.7 46.9 157.9
08/05 05:00 15.4 33 4.34 -0.8 13 19 1021.8 0 10.5 19.5 23.9 61.9 46.0 154.7
08/05 04:50 15.4 33 4.34 -0.6 15 17 1023 0 10.5 19.5 23.9 61.9 46.0 154.8
08/05 04:40 15.2 33 4.28 -0.7 11 15 1023 0 10.4 19.5 23.8 61.6 45.5 152.9
08/05 04:30 14.9 34 4.33 -0.8 9 13 1021.6 0 10.5 19.6 24.0 62.1 46.2 155.2
08/05 04:20 15 33 4.23 -1.1 11 13 1022.8 0 10.3 19.5 23.7 61.2 45.1 151.3
08/05 04:10 15.2 32 4.15 -1.1 9 11 1022.8 0 10.1 19.3 23.4 60.4 44.1 147.8
08/05 04:00 15.2 33 4.28 -0.9 11 17 1021.5 0 10.4 19.4 23.8 61.4 45.4 152.7
08/05 03:50 15.3 32 4.18 -1.2 13 17 1022.7 0 10.2 19.3 23.4 60.6 44.3 148.8
08/05 03:40 15.3 32 4.18 -1.3 11 13 1022.6 0 10.2 19.3 23.4 60.6 44.3 148.8
08/05 03:30 15.6 31 4.12 -1.4 11 17 1021.3 0 10.0 19.1 23.1 59.7 43.5 145.8
08/05 03:20 15.6 31 4.12 -1.4 9 11 1022.5 0 10.0 19.2 23.1 59.8 43.5 145.9
08/05 03:10 15.7 30 4.01 -1.5 11 13 1022.4 0 9.8 19.0 22.8 58.8 42.3 141.5
08/05 03:00 15.7 31 4.15 -1.4 11 19 1021.3 0 10.1 19.2 23.2 59.9 43.7 146.7
08/05 02:50 15.9 30 4.06 -1.6 13 17 1022.3 0 9.9 19.0 22.9 59.1 42.7 143.1
08/05 02:40 16.1 29 3.97 -1.6 11 13 1022.4 0 9.7 18.9 22.5 58.1 41.6 139.4
08/05 02:30 16.3 29 4.02 -1.7 9 13 1021.4 0 9.8 18.9 22.6 58.4 42.0 140.8
08/05 02:20 16.5 29 4.07 -1.6 11 13 1022.6 0 9.9 18.9 22.7 58.7 42.5 142.5
08/05 02:10 16.9 28 4.03 -1.6 7 9 1022.5 0 9.8 18.8 22.5 58.1 41.9 140.3
08/05 02:00 17.2 28 4.1 -1.4 11 17 1021.5 0 10.0 18.8 22.6 58.4 42.4 142.3
08/05 01:50 17.5 27 4.03 -1.6 11 15 1022.5 0 9.8 18.7 22.3 57.7 41.6 139.3
08/05 01:40 17.6 27 4.05 -1.6 13 17 1022.6 0 9.8 18.7 22.4 57.8 41.7 139.9
08/05 01:30 17.7 27 4.07 -1.5 9 15 1021.6 0 9.9 18.7 22.4 57.8 41.8 140.3
08/05 01:20 17.8 26 3.95 -1.7 11 13 1022.4 0 9.6 18.5 22.0 56.8 40.6 135.8
08/05 01:10 18.1 26 4.02 -1.7 11 13 1022.4 0 9.8 18.5 22.1 57.2 41.2 137.9
08/05 01:00 18.2 26 4.04 -1.6 9 13 1021.5 0 9.8 18.5 22.2 57.2 41.3 138.4
08/05 00:50 18.6 25 3.98 -1.8 11 15 1022.2 0 9.7 18.4 21.9 56.5 40.5 135.6
08/05 00:40 19 24 3.91 -1.8 11 13 1022.2 0 9.5 18.2 21.6 55.6 39.6 132.4
08/05 00:30 19.4 24 4 -1.7 9 15 1021.5 0 9.7 18.2 21.7 56.1 40.3 135.0
08/05 00:20 19.8 23 3.93 -1.7 11 13 1022 0 9.5 18.1 21.4 55.3 39.4 131.9
08/05 00:10 20.2 23 4.02 -1.6 13 15 1022 0 9.7 18.1 21.6 55.7 40.1 134.5
08/05 00:00 20.4 23 4.07 -1.4 13 19 1021.8 0 9.8 18.1 21.7 56.0 40.5 135.9
07/05 23:50 20.6 22 3.94 -1.5 15 17 1022.1 0 9.5 18.0 21.3 54.8 39.1 131.0
07/05 23:40 20.6 22 3.94 -1.6 13 17 1022.1 0 9.5 18.0 21.3 54.8 39.1 131.0
07/05 23:30 20.7 22 3.96 -1.8 13 19 1021.8 0 9.6 17.9 21.3 54.9 39.3 131.5
07/05 23:20 20.7 22 3.96 -1.6 19 20 1022 0 9.6 18.0 21.3 54.9 39.3 131.5
07/05 23:10 20.8 22 3.98 -1.7 15 19 1022 0 9.6 18.0 21.3 55.0 39.4 132.1
07/05 23:00 20.8 22 3.98 -1.7 15 20 1021.7 0 9.6 18.0 21.3 55.0 39.4 132.0
07/05 22:50 20.9 22 4.01 -1.7 19 22 1022 0 9.7 18.0 21.4 55.2 39.7 133.0
07/05 22:40 21 21 3.85 -1.7 15 17 1022 0 9.3 17.8 20.9 53.8 38.0 127.2
07/05 22:30 21.1 21 3.87 -2 17 24 1021.7 0 9.4 17.8 20.9 53.9 38.2 127.7
07/05 22:20 21.2 21 3.89 -1.9 15 19 1021.9 0 9.4 17.8 20.9 54.0 38.3 128.3
07/05 22:10 21.3 21 3.91 -2 15 17 1021.8 0 9.4 17.8 21.0 54.1 38.5 128.8
07/05 22:00 21.6 21 3.98 -1.6 20 28 1021.5 0 9.6 17.8 21.1 54.4 39.0 130.8
07/05 21:50 21.6 20 3.79 -2 22 26 1021.7 0 9.2 17.6 20.5 52.9 37.1 124.1
07/05 21:40 21.7 20 3.81 -2.1 17 19 1021.5 0 9.2 17.6 20.6 53.0 37.3 124.7
07/05 21:30 21.8 20 3.84 -2.1 17 24 1021.3 0 9.3 17.6 20.6 53.2 37.5 125.5
07/05 21:20 22 19 3.69 -2.2 19 24 1021.4 0 9.0 17.4 20.1 51.9 36.0 120.0
07/05 21:10 22.1 19 3.71 -2.2 20 26 1021.3 0 9.0 17.4 20.2 52.0 36.1 120.6
07/05 21:00 22.2 19 3.73 -2.5 17 28 1021.2 0 9.1 17.4 20.2 52.0 36.3 121.1
07/05 20:50 22.3 19 3.75 -2.2 20 22 1021.2 0 9.1 17.4 20.2 52.1 36.4 121.7
07/05 20:40 22.4 19 3.77 -2.2 19 24 1021.1 0 9.1 17.4 20.3 52.2 36.6 122.2
07/05 20:30 22.6 19 3.82 -2.2 19 26 1021.1 0 9.2 17.4 20.4 52.5 37.0 123.7
07/05 20:20 22.6 19 3.82 -1.9 15 19 1020.8 0 9.2 17.4 20.4 52.5 37.0 123.6
07/05 20:10 22.8 19 3.86 -1.9 17 19 1020.6 0 9.3 17.4 20.4 52.7 37.2 124.7
07/05 20:00 23 19 3.9 -1.8 19 26 1020.6 0 9.4 17.4 20.5 52.9 37.6 125.8
07/05 19:50 23.1 19 3.93 -1.6 19 22 1020.3 0 9.4 17.4 20.6 53.0 37.8 126.6
07/05 19:40 23.2 19 3.95 -1.2 22 32 1020.2 0 9.5 17.4 20.6 53.1 37.9 127.2
07/05 19:30 23.2 20 4.16 -1 17 24 1020.2 0 9.9 17.7 21.2 54.8 40.0 134.4
07/05 19:20 23.3 20 4.18 -0.6 17 22 1020 0 10.0 17.7 21.2 54.9 40.1 135.0
07/05 19:10 23.5 20 4.23 -0.5 24 33 1019.7 0 10.0 17.7 21.3 55.1 40.5 136.3
07/05 19:00 23.6 21 4.47 0 19 30 1019.8 0 10.5 18.0 22.0 57.0 42.9 144.6
07/05 18:50 23.8 20 4.3 -0.1 22 26 1019.5 0 10.2 17.7 21.5 55.5 41.1 138.3
07/05 18:40 23.9 20 4.33 -0.1 17 20 1019.4 0 10.2 17.7 21.5 55.6 41.3 139.1
07/05 18:30 24.1 20 4.38 -0.2 20 28 1019.6 0 10.3 17.8 21.6 55.9 41.7 140.6
07/05 18:20 24.2 20 4.4 0 20 24 1019.2 0 10.4 17.8 21.6 56.0 41.8 141.0
07/05 18:10 24.3 20 4.43 0 24 30 1019 0 10.4 17.8 21.7 56.1 42.1 141.9
07/05 18:00 24.4 20 4.45 0 22 32 1019.2 0 10.5 17.8 21.7 56.2 42.2 142.4
07/05 17:50 24.5 20 4.48 0.1 22 30 1018.7 0 10.5 17.8 21.8 56.4 42.5 143.2
07/05 17:40 24.7 20 4.53 0.1 22 30 1018.6 0 10.6 17.8 21.9 56.6 42.8 144.6
07/05 17:30 24.9 20 4.58 0.4 24 35 1018.9 0 10.7 17.8 22.0 56.9 43.2 146.1
07/05 17:20 25 19 4.37 0.1 30 37 1018.3 0 10.3 17.6 21.3 55.1 41.1 138.6
07/05 17:10 25.1 19 4.4 0.1 28 33 1018.2 0 10.4 17.6 21.4 55.3 41.4 139.4
07/05 17:00 25.5 19 4.5 0.2 26 37 1018.6 0 10.6 17.6 21.6 55.9 42.1 142.3
07/05 16:50 25.6 19 4.52 0.5 22 30 1017.9 0 10.6 17.6 21.6 55.9 42.3 142.7

Last Refresh: 08-May-2026 11:02:59

Bureau of Meteorology